Oba, Canada
Current Conditions -  °F | °C
As of 4:00 PM on Saturday 22 Nov 2014 (Local Time) from CYYU Reporting Station
Light Snow Light Snow  
Wind Chill: 26°   Ceiling: 1500
Heat Index: 32°   Visibility: 1.5mi
Dew Point: 30°   Wind: 6mph
Humidity: 93%   Direction: 300°WNW
Pressure: 29.59"   Gusts: NA
Location:  49.07°N, 84.1°W
Report Text: CYYU 222100Z 30005KT 1 1/2SM -SN BR SCT010 OVC015 00/M01 A2959 RMK SF4SC4 VIS VRB 1 - 2 SLP034
Loading
Personal Weather Stations






























Interactive Weather Map New forecast layout! Learn more

10-Day Weather Forecast

Advertisements
Track Severe Weather on mobile